sensor_id;sensor_type;location;lat;lon;timestamp;temperature;humidity
8459;DHT22;4266;48.816;9.154;2022-08-01T00:02:04;20.40;57.30
8459;DHT22;4266;48.816;9.154;2022-08-01T00:04:30;20.30;57.30
8459;DHT22;4266;48.816;9.154;2022-08-01T00:06:56;20.30;57.30
8459;DHT22;4266;48.816;9.154;2022-08-01T00:09:22;20.30;57.30
8459;DHT22;4266;48.816;9.154;2022-08-01T00:11:48;20.20;57.60
8459;DHT22;4266;48.816;9.154;2022-08-01T00:14:14;20.10;57.50
8459;DHT22;4266;48.816;9.154;2022-08-01T00:16:39;20.20;57.80
8459;DHT22;4266;48.816;9.154;2022-08-01T00:19:05;20.10;57.80
8459;DHT22;4266;48.816;9.154;2022-08-01T00:21:31;20.10;58.30
8459;DHT22;4266;48.816;9.154;2022-08-01T00:23:56;20.00;58.00
8459;DHT22;4266;48.816;9.154;2022-08-01T00:26:23;20.10;58.20
8459;DHT22;4266;48.816;9.154;2022-08-01T00:28:48;20.10;58.40
8459;DHT22;4266;48.816;9.154;2022-08-01T00:31:15;20.00;58.50
8459;DHT22;4266;48.816;9.154;2022-08-01T00:33:40;20.00;58.50
8459;DHT22;4266;48.816;9.154;2022-08-01T00:36:07;19.90;58.80
8459;DHT22;4266;48.816;9.154;2022-08-01T00:38:33;19.90;58.70
8459;DHT22;4266;48.816;9.154;2022-08-01T00:40:58;19.90;59.00
8459;DHT22;4266;48.816;9.154;2022-08-01T00:43:24;19.90;59.30
8459;DHT22;4266;48.816;9.154;2022-08-01T00:45:49;20.00;59.30
8459;DHT22;4266;48.816;9.154;2022-08-01T00:48:15;20.00;59.40
8459;DHT22;4266;48.816;9.154;2022-08-01T00:50:41;19.90;59.30
8459;DHT22;4266;48.816;9.154;2022-08-01T00:53:07;19.90;59.90
8459;DHT22;4266;48.816;9.154;2022-08-01T00:55:33;19.90;59.90
8459;DHT22;4266;48.816;9.154;2022-08-01T00:57:59;19.80;60.00
8459;DHT22;4266;48.816;9.154;2022-08-01T01:00:25;19.80;60.60
8459;DHT22;4266;48.816;9.154;2022-08-01T01:02:51;19.80;60.50
8459;DHT22;4266;48.816;9.154;2022-08-01T01:05:16;19.70;60.80
8459;DHT22;4266;48.816;9.154;2022-08-01T01:07:56;19.70;61.20
8459;DHT22;4266;48.816;9.154;2022-08-01T01:10:22;19.70;61.60
8459;DHT22;4266;48.816;9.154;2022-08-01T01:12:50;19.70;61.90
8459;DHT22;4266;48.816;9.154;2022-08-01T01:15:27;19.60;62.10
8459;DHT22;4266;48.816;9.154;2022-08-01T01:17:52;19.60;62.50
8459;DHT22;4266;48.816;9.154;2022-08-01T01:20:18;19.60;63.20
8459;DHT22;4266;48.816;9.154;2022-08-01T01:22:57;19.60;63.20
8459;DHT22;4266;48.816;9.154;2022-08-01T01:25:31;19.60;64.00
8459;DHT22;4266;48.816;9.154;2022-08-01T01:27:57;19.50;63.90
8459;DHT22;4266;48.816;9.154;2022-08-01T01:30:17;19.50;64.30
8459;DHT22;4266;48.816;9.154;2022-08-01T01:32:43;19.60;64.60
8459;DHT22;4266;48.816;9.154;2022-08-01T01:35:10;19.50;65.70
8459;DHT22;4266;48.816;9.154;2022-08-01T01:37:34;19.50;65.70
8459;DHT22;4266;48.816;9.154;2022-08-01T01:40:01;19.30;66.50
8459;DHT22;4266;48.816;9.154;2022-08-01T01:42:26;19.30;66.50
8459;DHT22;4266;48.816;9.154;2022-08-01T01:44:53;19.30;68.20
8459;DHT22;4266;48.816;9.154;2022-08-01T01:47:18;19.30;67.90
8459;DHT22;4266;48.816;9.154;2022-08-01T01:49:45;19.40;68.60
8459;DHT22;4266;48.816;9.154;2022-08-01T01:52:10;19.30;68.80
8459;DHT22;4266;48.816;9.154;2022-08-01T01:54:37;19.30;69.70
8459;DHT22;4266;48.816;9.154;2022-08-01T01:57:03;19.30;70.70
8459;DHT22;4266;48.816;9.154;2022-08-01T01:59:29;19.30;70.70
8459;DHT22;4266;48.816;9.154;2022-08-01T02:01:53;19.30;71.00
8459;DHT22;4266;48.816;9.154;2022-08-01T02:04:19;19.30;71.70
8459;DHT22;4266;48.816;9.154;2022-08-01T02:06:45;19.30;71.90
8459;DHT22;4266;48.816;9.154;2022-08-01T02:09:14;19.20;73.70
8459;DHT22;4266;48.816;9.154;2022-08-01T02:11:37;19.20;73.60
8459;DHT22;4266;48.816;9.154;2022-08-01T02:14:03;19.30;74.10
8459;DHT22;4266;48.816;9.154;2022-08-01T02:16:29;19.30;74.70
8459;DHT22;4266;48.816;9.154;2022-08-01T02:18:55;19.30;75.50
8459;DHT22;4266;48.816;9.154;2022-08-01T02:21:30;19.30;75.50
8459;DHT22;4266;48.816;9.154;2022-08-01T02:23:57;19.40;75.80
8459;DHT22;4266;48.816;9.154;2022-08-01T02:26:21;19.40;76.20
8459;DHT22;4266;48.816;9.154;2022-08-01T02:28:49;19.30;76.70
8459;DHT22;4266;48.816;9.154;2022-08-01T02:31:17;19.30;77.50
8459;DHT22;4266;48.816;9.154;2022-08-01T02:33:43;19.30;78.40
8459;DHT22;4266;48.816;9.154;2022-08-01T02:36:08;19.30;78.60
8459;DHT22;4266;48.816;9.154;2022-08-01T02:38:35;19.30;78.60
8459;DHT22;4266;48.816;9.154;2022-08-01T02:41:00;19.20;79.20
8459;DHT22;4266;48.816;9.154;2022-08-01T02:43:26;19.20;80.00
8459;DHT22;4266;48.816;9.154;2022-08-01T02:45:53;19.10;80.60
8459;DHT22;4266;48.816;9.154;2022-08-01T02:48:17;19.10;81.60
8459;DHT22;4266;48.816;9.154;2022-08-01T02:50:44;19.10;81.60
8459;DHT22;4266;48.816;9.154;2022-08-01T02:53:09;19.10;82.30
8459;DHT22;4266;48.816;9.154;2022-08-01T02:55:34;19.20;82.60
8459;DHT22;4266;48.816;9.154;2022-08-01T02:58:00;19.10;83.60
8459;DHT22;4266;48.816;9.154;2022-08-01T03:00:26;19.10;83.60
8459;DHT22;4266;48.816;9.154;2022-08-01T03:02:52;19.00;84.40
8459;DHT22;4266;48.816;9.154;2022-08-01T03:05:18;18.90;85.70
8459;DHT22;4266;48.816;9.154;2022-08-01T03:07:44;18.90;85.70
8459;DHT22;4266;48.816;9.154;2022-08-01T03:10:09;18.90;86.70
8459;DHT22;4266;48.816;9.154;2022-08-01T03:12:35;18.90;86.70
8459;DHT22;4266;48.816;9.154;2022-08-01T03:15:02;18.90;87.30
8459;DHT22;4266;48.816;9.154;2022-08-01T03:17:27;18.90;87.70
8459;DHT22;4266;48.816;9.154;2022-08-01T03:19:53;18.90;88.50
8459;DHT22;4266;48.816;9.154;2022-08-01T03:22:18;18.90;89.00
8459;DHT22;4266;48.816;9.154;2022-08-01T03:24:44;18.90;89.40
8459;DHT22;4266;48.816;9.154;2022-08-01T03:27:10;18.80;90.10
8459;DHT22;4266;48.816;9.154;2022-08-01T03:29:36;18.80;90.50
8459;DHT22;4266;48.816;9.154;2022-08-01T03:32:02;18.80;90.50
8459;DHT22;4266;48.816;9.154;2022-08-01T03:34:29;18.80;90.90
8459;DHT22;4266;48.816;9.154;2022-08-01T03:37:02;18.80;90.90
8459;DHT22;4266;48.816;9.154;2022-08-01T03:39:25;18.80;91.20
8459;DHT22;4266;48.816;9.154;2022-08-01T03:41:52;18.80;91.40
8459;DHT22;4266;48.816;9.154;2022-08-01T03:44:17;18.70;91.90
8459;DHT22;4266;48.816;9.154;2022-08-01T03:46:43;18.70;92.00
8459;DHT22;4266;48.816;9.154;2022-08-01T03:49:10;18.80;92.20
8459;DHT22;4266;48.816;9.154;2022-08-01T03:51:34;18.80;92.40
8459;DHT22;4266;48.816;9.154;2022-08-01T03:54:00;18.70;92.50
8459;DHT22;4266;48.816;9.154;2022-08-01T03:56:25;18.80;92.80
8459;DHT22;4266;48.816;9.154;2022-08-01T03:58:51;18.80;93.00
8459;DHT22;4266;48.816;9.154;2022-08-01T04:01:17;18.80;93.00
8459;DHT22;4266;48.816;9.154;2022-08-01T04:03:44;18.80;93.50
8459;DHT22;4266;48.816;9.154;2022-08-01T04:06:09;18.80;93.50
8459;DHT22;4266;48.816;9.154;2022-08-01T04:08:37;18.80;93.90
8459;DHT22;4266;48.816;9.154;2022-08-01T04:11:02;18.90;93.90
8459;DHT22;4266;48.816;9.154;2022-08-01T04:13:28;18.90;93.90
8459;DHT22;4266;48.816;9.154;2022-08-01T04:15:54;19.10;94.00
8459;DHT22;4266;48.816;9.154;2022-08-01T04:18:21;19.10;94.10
8459;DHT22;4266;48.816;9.154;2022-08-01T04:20:46;19.10;94.00
8459;DHT22;4266;48.816;9.154;2022-08-01T04:23:16;19.30;93.80
8459;DHT22;4266;48.816;9.154;2022-08-01T04:25:42;19.50;93.80
8459;DHT22;4266;48.816;9.154;2022-08-01T04:28:08;19.50;93.90
8459;DHT22;4266;48.816;9.154;2022-08-01T04:30:35;19.60;93.70
8459;DHT22;4266;48.816;9.154;2022-08-01T04:33:01;19.60;93.70
8459;DHT22;4266;48.816;9.154;2022-08-01T04:35:28;19.80;93.40
8459;DHT22;4266;48.816;9.154;2022-08-01T04:37:53;19.80;93.40
8459;DHT22;4266;48.816;9.154;2022-08-01T04:40:19;19.90;93.60
8459;DHT22;4266;48.816;9.154;2022-08-01T04:42:46;20.10;93.20
8459;DHT22;4266;48.816;9.154;2022-08-01T04:45:11;20.10;93.20
8459;DHT22;4266;48.816;9.154;2022-08-01T04:47:37;20.20;93.20
8459;DHT22;4266;48.816;9.154;2022-08-01T04:50:05;20.30;93.10
8459;DHT22;4266;48.816;9.154;2022-08-01T04:52:32;20.50;92.90
8459;DHT22;4266;48.816;9.154;2022-08-01T04:54:57;20.50;92.90
8459;DHT22;4266;48.816;9.154;2022-08-01T04:57:23;20.50;92.80
8459;DHT22;4266;48.816;9.154;2022-08-01T04:59:48;20.80;92.70
8459;DHT22;4266;48.816;9.154;2022-08-01T05:02:15;20.90;92.60
8459;DHT22;4266;48.816;9.154;2022-08-01T05:04:41;21.20;92.40
8459;DHT22;4266;48.816;9.154;2022-08-01T05:07:06;21.20;92.40
8459;DHT22;4266;48.816;9.154;2022-08-01T05:09:33;21.50;92.10
8459;DHT22;4266;48.816;9.154;2022-08-01T05:11:59;21.50;92.00
8459;DHT22;4266;48.816;9.154;2022-08-01T05:14:25;21.60;92.10
8459;DHT22;4266;48.816;9.154;2022-08-01T05:16:51;21.50;92.10
8459;DHT22;4266;48.816;9.154;2022-08-01T05:19:16;21.60;92.10
8459;DHT22;4266;48.816;9.154;2022-08-01T05:21:42;21.60;92.10
8459;DHT22;4266;48.816;9.154;2022-08-01T05:24:07;21.80;91.90
8459;DHT22;4266;48.816;9.154;2022-08-01T05:26:33;22.00;91.90
8459;DHT22;4266;48.816;9.154;2022-08-01T05:28:59;22.30;91.60
8459;DHT22;4266;48.816;9.154;2022-08-01T05:31:24;22.50;91.30
8459;DHT22;4266;48.816;9.154;2022-08-01T05:33:50;22.60;91.10
8459;DHT22;4266;48.816;9.154;2022-08-01T05:36:16;22.90;90.60
8459;DHT22;4266;48.816;9.154;2022-08-01T05:38:41;23.20;90.40
8459;DHT22;4266;48.816;9.154;2022-08-01T05:41:07;23.40;90.20
8459;DHT22;4266;48.816;9.154;2022-08-01T05:43:33;23.60;90.00
8459;DHT22;4266;48.816;9.154;2022-08-01T05:45:58;23.70;89.70
8459;DHT22;4266;48.816;9.154;2022-08-01T05:48:25;24.80;88.00
8459;DHT22;4266;48.816;9.154;2022-08-01T05:50:50;24.80;88.00
8459;DHT22;4266;48.816;9.154;2022-08-01T05:53:17;25.50;85.00
8459;DHT22;4266;48.816;9.154;2022-08-01T05:55:42;25.50;85.40
8459;DHT22;4266;48.816;9.154;2022-08-01T05:58:10;25.80;84.90
8459;DHT22;4266;48.816;9.154;2022-08-01T06:00:35;25.80;84.40
8459;DHT22;4266;48.816;9.154;2022-08-01T06:03:02;26.10;82.10
8459;DHT22;4266;48.816;9.154;2022-08-01T06:05:27;26.00;82.00
8459;DHT22;4266;48.816;9.154;2022-08-01T06:07:53;26.20;82.40
8459;DHT22;4266;48.816;9.154;2022-08-01T06:10:19;26.30;81.50
8459;DHT22;4266;48.816;9.154;2022-08-01T06:12:44;26.70;81.50
8459;DHT22;4266;48.816;9.154;2022-08-01T06:15:11;27.20;80.50
8459;DHT22;4266;48.816;9.154;2022-08-01T06:17:36;27.40;79.30
8459;DHT22;4266;48.816;9.154;2022-08-01T06:20:02;27.60;79.30
8459;DHT22;4266;48.816;9.154;2022-08-01T06:22:28;27.80;77.50
8459;DHT22;4266;48.816;9.154;2022-08-01T06:24:54;28.40;77.20
8459;DHT22;4266;48.816;9.154;2022-08-01T06:27:20;28.50;75.70
8459;DHT22;4266;48.816;9.154;2022-08-01T06:29:45;28.50;76.10
8459;DHT22;4266;48.816;9.154;2022-08-01T06:32:11;29.00;75.30
8459;DHT22;4266;48.816;9.154;2022-08-01T06:34:37;29.20;73.90
8459;DHT22;4266;48.816;9.154;2022-08-01T06:37:03;29.20;73.80
8459;DHT22;4266;48.816;9.154;2022-08-01T06:39:29;29.30;73.30
8459;DHT22;4266;48.816;9.154;2022-08-01T06:41:54;29.30;72.60
8459;DHT22;4266;48.816;9.154;2022-08-01T06:44:20;29.30;72.70
8459;DHT22;4266;48.816;9.154;2022-08-01T06:46:46;28.60;71.90
8459;DHT22;4266;48.816;9.154;2022-08-01T06:49:11;29.10;72.90
8459;DHT22;4266;48.816;9.154;2022-08-01T06:51:37;29.30;71.40
8459;DHT22;4266;48.816;9.154;2022-08-01T06:54:03;29.60;71.50
8459;DHT22;4266;48.816;9.154;2022-08-01T06:56:29;29.60;72.00
8459;DHT22;4266;48.816;9.154;2022-08-01T06:58:55;29.70;69.60
8459;DHT22;4266;48.816;9.154;2022-08-01T07:01:23;29.30;70.10
8459;DHT22;4266;48.816;9.154;2022-08-01T07:03:49;29.30;70.10
8459;DHT22;4266;48.816;9.154;2022-08-01T07:06:15;29.00;68.90
8459;DHT22;4266;48.816;9.154;2022-08-01T07:08:41;29.00;68.60
8459;DHT22;4266;48.816;9.154;2022-08-01T07:11:06;28.60;69.30
8459;DHT22;4266;48.816;9.154;2022-08-01T07:13:32;28.70;69.50
8459;DHT22;4266;48.816;9.154;2022-08-01T07:15:58;28.30;70.10
8459;DHT22;4266;48.816;9.154;2022-08-01T07:18:23;28.00;70.00
8459;DHT22;4266;48.816;9.154;2022-08-01T07:20:49;27.60;71.00
8459;DHT22;4266;48.816;9.154;2022-08-01T07:23:15;27.50;70.70
8459;DHT22;4266;48.816;9.154;2022-08-01T07:25:40;27.80;71.00
8459;DHT22;4266;48.816;9.154;2022-08-01T07:28:06;27.90;71.10
8459;DHT22;4266;48.816;9.154;2022-08-01T07:30:32;27.90;71.30
8459;DHT22;4266;48.816;9.154;2022-08-01T07:32:57;28.40;71.10
8459;DHT22;4266;48.816;9.154;2022-08-01T07:35:24;29.30;68.90
8459;DHT22;4266;48.816;9.154;2022-08-01T07:37:49;29.30;68.90
8459;DHT22;4266;48.816;9.154;2022-08-01T07:40:17;28.70;70.20
8459;DHT22;4266;48.816;9.154;2022-08-01T07:42:43;28.70;70.10
8459;DHT22;4266;48.816;9.154;2022-08-01T07:45:10;29.10;68.50
8459;DHT22;4266;48.816;9.154;2022-08-01T07:47:35;28.60;69.70
8459;DHT22;4266;48.816;9.154;2022-08-01T07:50:03;29.70;68.90
8459;DHT22;4266;48.816;9.154;2022-08-01T07:52:27;29.70;68.90
8459;DHT22;4266;48.816;9.154;2022-08-01T07:54:53;30.20;67.10
8459;DHT22;4266;48.816;9.154;2022-08-01T07:57:19;30.20;67.00
8459;DHT22;4266;48.816;9.154;2022-08-01T07:59:44;30.10;67.70
8459;DHT22;4266;48.816;9.154;2022-08-01T08:02:10;30.20;67.30
8459;DHT22;4266;48.816;9.154;2022-08-01T08:04:36;30.60;66.60
8459;DHT22;4266;48.816;9.154;2022-08-01T08:07:02;30.00;66.00
8459;DHT22;4266;48.816;9.154;2022-08-01T08:09:27;30.00;66.50
8459;DHT22;4266;48.816;9.154;2022-08-01T08:11:53;30.50;65.70
8459;DHT22;4266;48.816;9.154;2022-08-01T08:14:19;29.60;66.40
8459;DHT22;4266;48.816;9.154;2022-08-01T08:16:45;29.60;66.40
8459;DHT22;4266;48.816;9.154;2022-08-01T08:19:11;29.50;65.90
8459;DHT22;4266;48.816;9.154;2022-08-01T08:21:36;29.00;67.10
8459;DHT22;4266;48.816;9.154;2022-08-01T08:24:02;28.60;67.20
8459;DHT22;4266;48.816;9.154;2022-08-01T08:26:34;28.60;67.30
8459;DHT22;4266;48.816;9.154;2022-08-01T08:29:00;28.70;67.50
8459;DHT22;4266;48.816;9.154;2022-08-01T08:31:26;28.40;68.40
8459;DHT22;4266;48.816;9.154;2022-08-01T08:33:52;28.50;67.80
8459;DHT22;4266;48.816;9.154;2022-08-01T08:36:18;28.40;67.70
8459;DHT22;4266;48.816;9.154;2022-08-01T08:38:43;28.30;68.60
8459;DHT22;4266;48.816;9.154;2022-08-01T08:41:11;28.10;66.80
8459;DHT22;4266;48.816;9.154;2022-08-01T08:43:36;28.10;66.80
8459;DHT22;4266;48.816;9.154;2022-08-01T08:46:02;27.80;67.10
8459;DHT22;4266;48.816;9.154;2022-08-01T08:48:28;28.00;69.00
8459;DHT22;4266;48.816;9.154;2022-08-01T08:50:54;28.00;68.60
8459;DHT22;4266;48.816;9.154;2022-08-01T08:53:20;27.90;68.10
8459;DHT22;4266;48.816;9.154;2022-08-01T08:55:46;27.90;67.70
8459;DHT22;4266;48.816;9.154;2022-08-01T08:58:13;27.30;68.00
8459;DHT22;4266;48.816;9.154;2022-08-01T09:00:39;27.20;67.90
8459;DHT22;4266;48.816;9.154;2022-08-01T09:03:05;27.30;68.60
8459;DHT22;4266;48.816;9.154;2022-08-01T09:05:30;27.30;68.80
8459;DHT22;4266;48.816;9.154;2022-08-01T09:07:57;27.40;69.30
8459;DHT22;4266;48.816;9.154;2022-08-01T09:10:22;27.40;69.30
8459;DHT22;4266;48.816;9.154;2022-08-01T09:13:02;27.80;68.80
8459;DHT22;4266;48.816;9.154;2022-08-01T09:18:00;27.90;67.50
8459;DHT22;4266;48.816;9.154;2022-08-01T09:20:26;28.20;68.50
8459;DHT22;4266;48.816;9.154;2022-08-01T09:22:52;27.90;68.50
8459;DHT22;4266;48.816;9.154;2022-08-01T09:25:19;27.80;68.40
8459;DHT22;4266;48.816;9.154;2022-08-01T09:27:44;27.70;68.20
8459;DHT22;4266;48.816;9.154;2022-08-01T09:30:12;27.40;68.50
8459;DHT22;4266;48.816;9.154;2022-08-01T09:35:25;27.60;68.70
8459;DHT22;4266;48.816;9.154;2022-08-01T09:37:50;28.20;68.90
8459;DHT22;4266;48.816;9.154;2022-08-01T09:40:16;28.70;67.80
8459;DHT22;4266;48.816;9.154;2022-08-01T09:42:43;29.30;67.80
8459;DHT22;4266;48.816;9.154;2022-08-01T09:45:10;29.10;67.60
8459;DHT22;4266;48.816;9.154;2022-08-01T09:47:38;29.10;67.60
8459;DHT22;4266;48.816;9.154;2022-08-01T09:50:04;28.30;66.90
8459;DHT22;4266;48.816;9.154;2022-08-01T09:52:30;28.20;66.80
8459;DHT22;4266;48.816;9.154;2022-08-01T09:54:57;27.90;68.20
8459;DHT22;4266;48.816;9.154;2022-08-01T09:57:23;28.10;67.70
8459;DHT22;4266;48.816;9.154;2022-08-01T09:59:50;28.30;68.40
8459;DHT22;4266;48.816;9.154;2022-08-01T10:02:26;28.30;67.30
8459;DHT22;4266;48.816;9.154;2022-08-01T10:04:46;28.30;67.30
8459;DHT22;4266;48.816;9.154;2022-08-01T10:07:11;28.30;68.00
8459;DHT22;4266;48.816;9.154;2022-08-01T10:09:37;29.10;66.90
8459;DHT22;4266;48.816;9.154;2022-08-01T10:12:03;29.10;66.80
8459;DHT22;4266;48.816;9.154;2022-08-01T10:14:29;29.20;66.80
8459;DHT22;4266;48.816;9.154;2022-08-01T10:16:57;30.10;66.10
8459;DHT22;4266;48.816;9.154;2022-08-01T10:19:22;30.10;66.10
8459;DHT22;4266;48.816;9.154;2022-08-01T10:21:47;29.80;66.20
8459;DHT22;4266;48.816;9.154;2022-08-01T10:24:13;30.20;65.50
8459;DHT22;4266;48.816;9.154;2022-08-01T10:26:38;30.70;64.30
8459;DHT22;4266;48.816;9.154;2022-08-01T10:29:04;31.10;65.10
8459;DHT22;4266;48.816;9.154;2022-08-01T10:31:31;30.60;64.00
8459;DHT22;4266;48.816;9.154;2022-08-01T10:33:57;30.70;62.80
8459;DHT22;4266;48.816;9.154;2022-08-01T10:36:23;30.70;62.70
8459;DHT22;4266;48.816;9.154;2022-08-01T10:38:48;30.80;62.60
8459;DHT22;4266;48.816;9.154;2022-08-01T10:41:15;31.30;62.70
8459;DHT22;4266;48.816;9.154;2022-08-01T10:43:41;31.30;62.60
8459;DHT22;4266;48.816;9.154;2022-08-01T10:46:07;30.80;63.20
8459;DHT22;4266;48.816;9.154;2022-08-01T10:48:42;30.80;63.20
8459;DHT22;4266;48.816;9.154;2022-08-01T10:51:06;30.20;62.10
8459;DHT22;4266;48.816;9.154;2022-08-01T10:53:31;30.20;62.10
8459;DHT22;4266;48.816;9.154;2022-08-01T10:56:02;30.20;61.90
8459;DHT22;4266;48.816;9.154;2022-08-01T10:58:30;30.10;62.50
8459;DHT22;4266;48.816;9.154;2022-08-01T11:03:34;30.30;62.30
8459;DHT22;4266;48.816;9.154;2022-08-01T11:05:59;29.80;61.70
8459;DHT22;4266;48.816;9.154;2022-08-01T11:08:26;30.20;61.00
8459;DHT22;4266;48.816;9.154;2022-08-01T11:10:52;30.20;61.00
8459;DHT22;4266;48.816;9.154;2022-08-01T11:13:25;31.00;61.70
8459;DHT22;4266;48.816;9.154;2022-08-01T11:15:43;30.60;61.50
8459;DHT22;4266;48.816;9.154;2022-08-01T11:20:55;30.30;61.20
8459;DHT22;4266;48.816;9.154;2022-08-01T11:23:20;30.20;61.10
8459;DHT22;4266;48.816;9.154;2022-08-01T11:26:08;30.60;60.30
8459;DHT22;4266;48.816;9.154;2022-08-01T11:28:34;30.60;61.00
8459;DHT22;4266;48.816;9.154;2022-08-01T11:31:25;30.60;60.30
8459;DHT22;4266;48.816;9.154;2022-08-01T11:33:52;31.20;61.00
8459;DHT22;4266;48.816;9.154;2022-08-01T11:36:19;30.90;60.10
8459;DHT22;4266;48.816;9.154;2022-08-01T11:38:49;30.90;60.10
8459;DHT22;4266;48.816;9.154;2022-08-01T11:41:21;31.40;60.30
8459;DHT22;4266;48.816;9.154;2022-08-01T11:43:57;31.20;59.60
8459;DHT22;4266;48.816;9.154;2022-08-01T11:51:46;30.90;59.40
8459;DHT22;4266;48.816;9.154;2022-08-01T11:54:12;31.30;59.50
8459;DHT22;4266;48.816;9.154;2022-08-01T11:56:38;31.60;58.80
8459;DHT22;4266;48.816;9.154;2022-08-01T11:59:03;31.40;58.80
8459;DHT22;4266;48.816;9.154;2022-08-01T12:01:30;31.20;59.00
8459;DHT22;4266;48.816;9.154;2022-08-01T12:03:55;31.20;58.90
8459;DHT22;4266;48.816;9.154;2022-08-01T12:06:27;31.30;58.80
8459;DHT22;4266;48.816;9.154;2022-08-01T12:08:52;31.00;58.60
8459;DHT22;4266;48.816;9.154;2022-08-01T12:11:18;31.00;58.60
8459;DHT22;4266;48.816;9.154;2022-08-01T12:13:44;30.80;58.50
8459;DHT22;4266;48.816;9.154;2022-08-01T12:16:10;31.10;58.70
8459;DHT22;4266;48.816;9.154;2022-08-01T12:18:38;31.20;58.60
8459;DHT22;4266;48.816;9.154;2022-08-01T12:21:05;31.60;58.40
8459;DHT22;4266;48.816;9.154;2022-08-01T12:23:31;31.60;58.40
8459;DHT22;4266;48.816;9.154;2022-08-01T12:25:56;31.10;58.70
8459;DHT22;4266;48.816;9.154;2022-08-01T12:28:22;30.90;59.20
8459;DHT22;4266;48.816;9.154;2022-08-01T12:30:48;31.60;59.20
8459;DHT22;4266;48.816;9.154;2022-08-01T12:33:17;31.80;58.50
8459;DHT22;4266;48.816;9.154;2022-08-01T12:35:43;31.80;58.50
8459;DHT22;4266;48.816;9.154;2022-08-01T12:38:14;32.00;59.00
8459;DHT22;4266;48.816;9.154;2022-08-01T12:40:41;31.70;58.00
8459;DHT22;4266;48.816;9.154;2022-08-01T12:43:07;32.20;57.80
8459;DHT22;4266;48.816;9.154;2022-08-01T12:45:36;32.20;57.40
8459;DHT22;4266;48.816;9.154;2022-08-01T12:48:00;32.30;57.90
8459;DHT22;4266;48.816;9.154;2022-08-01T12:50:28;32.00;57.40
8459;DHT22;4266;48.816;9.154;2022-08-01T12:52:52;31.50;57.30
8459;DHT22;4266;48.816;9.154;2022-08-01T12:55:20;31.20;57.60
8459;DHT22;4266;48.816;9.154;2022-08-01T12:57:46;31.60;58.00
8459;DHT22;4266;48.816;9.154;2022-08-01T13:00:13;31.90;58.00
8459;DHT22;4266;48.816;9.154;2022-08-01T13:02:38;31.50;57.60
8459;DHT22;4266;48.816;9.154;2022-08-01T13:05:04;31.00;57.60
8459;DHT22;4266;48.816;9.154;2022-08-01T13:07:36;30.40;58.30
8459;DHT22;4266;48.816;9.154;2022-08-01T13:10:03;30.00;58.60
8459;DHT22;4266;48.816;9.154;2022-08-01T13:12:29;29.90;58.60
8459;DHT22;4266;48.816;9.154;2022-08-01T13:14:55;29.90;58.60
8459;DHT22;4266;48.816;9.154;2022-08-01T13:17:29;29.90;58.90
8459;DHT22;4266;48.816;9.154;2022-08-01T13:19:54;29.80;58.50
8459;DHT22;4266;48.816;9.154;2022-08-01T13:22:20;30.30;59.30
8459;DHT22;4266;48.816;9.154;2022-08-01T13:24:46;30.30;59.00
8459;DHT22;4266;48.816;9.154;2022-08-01T13:27:19;30.70;58.70
8459;DHT22;4266;48.816;9.154;2022-08-01T13:29:39;30.40;58.20
8459;DHT22;4266;48.816;9.154;2022-08-01T13:32:12;30.40;58.20
8459;DHT22;4266;48.816;9.154;2022-08-01T13:34:37;30.30;58.70
8459;DHT22;4266;48.816;9.154;2022-08-01T13:37:02;30.20;58.80
8459;DHT22;4266;48.816;9.154;2022-08-01T13:39:28;30.30;58.20
8459;DHT22;4266;48.816;9.154;2022-08-01T13:42:00;29.80;57.80
8459;DHT22;4266;48.816;9.154;2022-08-01T13:44:26;29.80;58.10
8459;DHT22;4266;48.816;9.154;2022-08-01T13:46:52;29.90;58.20
8459;DHT22;4266;48.816;9.154;2022-08-01T13:49:17;29.80;57.70
8459;DHT22;4266;48.816;9.154;2022-08-01T13:51:44;30.00;58.50
8459;DHT22;4266;48.816;9.154;2022-08-01T13:54:10;30.00;58.40
8459;DHT22;4266;48.816;9.154;2022-08-01T13:56:36;30.00;59.10
8459;DHT22;4266;48.816;9.154;2022-08-01T13:59:02;30.10;58.70
8459;DHT22;4266;48.816;9.154;2022-08-01T14:01:27;30.00;58.90
8459;DHT22;4266;48.816;9.154;2022-08-01T14:03:53;30.10;58.60
8459;DHT22;4266;48.816;9.154;2022-08-01T14:06:19;30.00;58.50
8459;DHT22;4266;48.816;9.154;2022-08-01T14:08:46;29.70;58.60
8459;DHT22;4266;48.816;9.154;2022-08-01T14:11:12;29.70;58.60
8459;DHT22;4266;48.816;9.154;2022-08-01T14:13:37;29.80;58.70
8459;DHT22;4266;48.816;9.154;2022-08-01T14:16:04;30.00;58.70
8459;DHT22;4266;48.816;9.154;2022-08-01T14:18:30;30.00;58.60
8459;DHT22;4266;48.816;9.154;2022-08-01T14:20:55;30.10;58.30
8459;DHT22;4266;48.816;9.154;2022-08-01T14:23:22;29.80;58.60
8459;DHT22;4266;48.816;9.154;2022-08-01T14:25:47;29.80;58.50
8459;DHT22;4266;48.816;9.154;2022-08-01T14:28:14;29.80;58.30
8459;DHT22;4266;48.816;9.154;2022-08-01T14:30:40;29.80;58.30
8459;DHT22;4266;48.816;9.154;2022-08-01T14:33:05;30.10;58.50
8459;DHT22;4266;48.816;9.154;2022-08-01T14:35:31;30.20;57.80
8459;DHT22;4266;48.816;9.154;2022-08-01T14:37:57;30.60;58.00
8459;DHT22;4266;48.816;9.154;2022-08-01T14:40:23;30.60;58.00
8459;DHT22;4266;48.816;9.154;2022-08-01T14:42:49;30.70;57.90
8459;DHT22;4266;48.816;9.154;2022-08-01T14:45:15;30.60;57.80
8459;DHT22;4266;48.816;9.154;2022-08-01T14:47:41;30.50;57.90
8459;DHT22;4266;48.816;9.154;2022-08-01T14:50:09;31.20;58.40
8459;DHT22;4266;48.816;9.154;2022-08-01T14:52:34;31.20;58.30
8459;DHT22;4266;48.816;9.154;2022-08-01T14:54:59;31.30;57.80
8459;DHT22;4266;48.816;9.154;2022-08-01T14:57:26;31.20;57.90
8459;DHT22;4266;48.816;9.154;2022-08-01T14:59:51;31.20;57.90
8459;DHT22;4266;48.816;9.154;2022-08-01T15:02:18;31.20;57.70
8459;DHT22;4266;48.816;9.154;2022-08-01T15:04:44;31.20;57.70
8459;DHT22;4266;48.816;9.154;2022-08-01T15:07:10;30.70;56.80
8459;DHT22;4266;48.816;9.154;2022-08-01T15:09:35;30.80;56.80
8459;DHT22;4266;48.816;9.154;2022-08-01T15:12:02;30.80;57.10
8459;DHT22;4266;48.816;9.154;2022-08-01T15:14:29;30.60;57.30
8459;DHT22;4266;48.816;9.154;2022-08-01T15:17:00;30.60;57.30
8459;DHT22;4266;48.816;9.154;2022-08-01T15:19:27;30.60;57.10
8459;DHT22;4266;48.816;9.154;2022-08-01T15:21:52;30.60;57.10
8459;DHT22;4266;48.816;9.154;2022-08-01T15:24:18;30.60;56.90
8459;DHT22;4266;48.816;9.154;2022-08-01T15:26:44;30.40;57.10
8459;DHT22;4266;48.816;9.154;2022-08-01T15:29:10;30.40;57.20
8459;DHT22;4266;48.816;9.154;2022-08-01T15:31:36;30.40;57.20
8459;DHT22;4266;48.816;9.154;2022-08-01T15:34:02;30.20;56.80
8459;DHT22;4266;48.816;9.154;2022-08-01T15:36:28;30.10;56.70
8459;DHT22;4266;48.816;9.154;2022-08-01T15:38:53;30.00;56.40
8459;DHT22;4266;48.816;9.154;2022-08-01T15:41:19;29.80;56.30
8459;DHT22;4266;48.816;9.154;2022-08-01T15:43:46;29.70;56.10
8459;DHT22;4266;48.816;9.154;2022-08-01T15:46:11;29.60;56.10
8459;DHT22;4266;48.816;9.154;2022-08-01T15:48:37;29.70;56.30
8459;DHT22;4266;48.816;9.154;2022-08-01T15:51:03;29.90;56.40
8459;DHT22;4266;48.816;9.154;2022-08-01T15:53:29;29.80;56.40
8459;DHT22;4266;48.816;9.154;2022-08-01T15:55:55;29.70;56.30
8459;DHT22;4266;48.816;9.154;2022-08-01T15:58:21;29.70;56.60
8459;DHT22;4266;48.816;9.154;2022-08-01T16:00:47;29.70;56.60
8459;DHT22;4266;48.816;9.154;2022-08-01T16:03:13;29.60;56.30
8459;DHT22;4266;48.816;9.154;2022-08-01T16:05:38;29.50;56.40
8459;DHT22;4266;48.816;9.154;2022-08-01T16:08:04;29.40;56.40
8459;DHT22;4266;48.816;9.154;2022-08-01T16:10:30;29.40;56.80
8459;DHT22;4266;48.816;9.154;2022-08-01T16:12:56;29.30;56.70